KLTS/LTS METAR and TAF weather

Enter ICAO airport designator
Station Type Date Time Source
KLTS METAR 2019/06/27 07:56 UTC NOAA

KLTS 270756Z AUTO 17009KT 10SM CLR 24/20 A3010 RMK AO2 SLP177 T02370202 $


Station Type Date Time Source
KLTS Decoded METAR 2019/06/27 07:56 UTC NOAA

Altus Air Force Base, OK, United States (KLTS) 34-39N 099-16W 420M
Jun 27, 2019 - 03:56 AM EDT / 2019.06.27 0756 UTC
Wind: from the S (170 degrees) at 10 MPH (9 KT):0
Visibility: 10 mile(s):0
Sky conditions: clear
Temperature: 74.7 F (23.7 C)
Dew Point: 68.4 F (20.2 C)
Relative Humidity: 80%
Pressure (altimeter): 30.1 in. Hg (1019 hPa)
ob: KLTS 270756Z AUTO 17009KT 10SM CLR 24/20 A3010 RMK AO2 SLP177 T02370202
cycle: 8

Station Type Date Time Source
KLTS TAF 2019/06/27 02:12 UTC NOAA

TAF KLTS 270205Z 2702/2807 16010KT 9999 SCT120 QNH3006INS
BECMG 2706/2707 16010KT 9999 BKN025 QNH3008INS
BECMG 2711/2712 17009KT 9000 BR BKN006 QNH3010INS
BECMG 2714/2715 20010G20KT 9999 NSW SCT040 QNH3006INS
BECMG 2720/2721 17012KT 9999 FEW080 QNH3003INS TX35/2721Z TN23/2712Z

Example: see airport list